createdAt,value
2023-04-19T00:01:11.109Z,19.45
2023-04-19T00:03:37.759Z,21.35
2023-04-19T00:06:04.591Z,21.02
2023-04-19T00:08:30.919Z,21.02
2023-04-19T00:10:57.301Z,20.83
2023-04-19T00:13:23.631Z,20.15
2023-04-19T00:15:50.187Z,19.08
2023-04-19T00:18:16.698Z,18.88
2023-04-19T00:20:43.155Z,19.30
2023-04-19T00:23:09.545Z,17.27
2023-04-19T00:25:36.059Z,17.50
2023-04-19T00:28:02.468Z,17.80
2023-04-19T00:30:29.129Z,14.27
2023-04-19T00:32:55.897Z,20.35
2023-04-19T00:35:22.357Z,16.98
2023-04-19T00:37:48.944Z,18.63
2023-04-19T00:40:15.386Z,17.95
2023-04-19T00:42:42.227Z,15.77
2023-04-19T00:45:09.156Z,14.75
2023-04-19T00:47:36.094Z,18.00
2023-04-19T00:50:04.775Z,15.93
2023-04-19T00:52:33.176Z,14.07
2023-04-19T00:55:00.178Z,15.60
2023-04-19T00:57:27.083Z,15.25
2023-04-19T00:59:55.045Z,14.88
2023-04-19T01:02:24.671Z,11.95
2023-04-19T01:04:51.804Z,15.93
2023-04-19T01:07:19.420Z,22.05
2023-04-19T01:09:46.630Z,17.30
2023-04-19T01:12:12.967Z,15.32
2023-04-19T01:14:42.271Z,14.45
2023-04-19T01:17:09.247Z,15.45
2023-04-19T01:19:36.860Z,13.02
2023-04-19T01:22:04.338Z,11.63
2023-04-19T01:24:31.445Z,12.20
2023-04-19T01:26:58.858Z,13.30
2023-04-19T01:29:25.741Z,13.35
2023-04-19T01:31:54.098Z,11.05
2023-04-19T01:34:21.058Z,14.32
2023-04-19T01:36:47.417Z,12.40
2023-04-19T01:39:13.838Z,11.43
2023-04-19T01:41:40.377Z,9.68
2023-04-19T01:44:06.737Z,9.55
2023-04-19T01:46:33.302Z,9.65
2023-04-19T01:48:59.710Z,9.30
2023-04-19T01:51:26.126Z,13.10
2023-04-19T01:53:54.715Z,9.85
2023-04-19T01:56:24.721Z,11.75
2023-04-19T01:58:51.215Z,8.73
2023-04-19T02:01:17.639Z,9.57
2023-04-19T02:03:44.685Z,8.90
2023-04-19T02:06:12.756Z,10.30
2023-04-19T02:08:42.971Z,13.73
2023-04-19T02:11:10.397Z,10.13
2023-04-19T02:13:38.031Z,10.15
2023-04-19T02:16:06.210Z,8.70
2023-04-19T02:18:38.557Z,8.23
2023-04-19T02:21:06.221Z,8.27
2023-04-19T02:23:32.992Z,9.93
2023-04-19T02:25:59.404Z,10.57
2023-04-19T02:28:25.973Z,7.90
2023-04-19T02:30:52.328Z,8.15
2023-04-19T02:33:18.845Z,9.52
2023-04-19T02:35:45.576Z,10.05
2023-04-19T02:38:11.928Z,9.05
2023-04-19T02:40:38.277Z,9.77
2023-04-19T02:43:05.035Z,9.40
2023-04-19T02:45:31.571Z,8.23
2023-04-19T02:47:59.389Z,8.82
2023-04-19T02:50:27.088Z,8.75
2023-04-19T02:52:53.514Z,11.37
2023-04-19T02:55:20.186Z,10.50
2023-04-19T02:57:46.795Z,8.45
2023-04-19T03:00:14.135Z,8.80
2023-04-19T03:02:41.708Z,10.15
2023-04-19T03:05:09.023Z,8.97
2023-04-19T03:07:35.827Z,8.60
2023-04-19T03:10:03.134Z,11.43
2023-04-19T03:12:29.506Z,7.85
2023-04-19T03:14:55.976Z,8.05
2023-04-19T03:17:22.616Z,10.43
2023-04-19T03:19:49.322Z,9.05
2023-04-19T03:22:16.418Z,9.13
2023-04-19T03:24:42.815Z,7.38
2023-04-19T03:27:09.259Z,9.43
2023-04-19T03:29:35.840Z,9.05
2023-04-19T03:32:02.448Z,8.70
2023-04-19T03:34:29.092Z,8.23
2023-04-19T03:36:56.103Z,9.40
2023-04-19T03:39:22.750Z,11.13
2023-04-19T03:41:49.139Z,8.18
2023-04-19T03:44:15.691Z,9.57
2023-04-19T03:46:42.514Z,8.75
2023-04-19T03:49:09.158Z,10.05
2023-04-19T03:51:35.504Z,11.18
2023-04-19T03:54:01.982Z,12.10
2023-04-19T03:56:29.559Z,12.20
2023-04-19T03:58:56.157Z,13.05
2023-04-19T04:01:24.397Z,10.02
2023-04-19T04:03:51.258Z,9.77
2023-04-19T04:06:18.097Z,14.02
2023-04-19T04:08:44.729Z,10.25
2023-04-19T04:11:11.587Z,10.63
2023-04-19T04:13:38.234Z,9.80
2023-04-19T04:16:05.140Z,11.80
2023-04-19T04:18:31.956Z,9.68
2023-04-19T04:20:58.507Z,12.32
2023-04-19T04:23:25.660Z,9.70
2023-04-19T04:26:01.073Z,11.00
2023-04-19T04:28:28.183Z,14.07
2023-04-19T04:30:57.319Z,12.82
2023-04-19T04:33:30.178Z,10.85
2023-04-19T04:35:57.812Z,12.52
2023-04-19T04:38:25.204Z,12.00
2023-04-19T04:40:55.903Z,11.27
2023-04-19T04:43:25.672Z,12.20
2023-04-19T04:45:52.394Z,14.40
2023-04-19T04:48:18.813Z,15.05
2023-04-19T04:50:45.358Z,13.52
2023-04-19T04:53:14.774Z,12.30
2023-04-19T04:55:41.303Z,15.02
2023-04-19T04:58:07.728Z,16.30
2023-04-19T05:00:34.411Z,12.98
2023-04-19T05:03:02.746Z,10.38
2023-04-19T05:07:56.413Z,17.45
2023-04-19T05:10:22.875Z,12.73
2023-04-19T05:12:49.343Z,12.13
2023-04-19T05:15:16.998Z,13.82
2023-04-19T05:17:43.639Z,13.60
2023-04-19T05:20:10.617Z,9.73
2023-04-19T05:22:37.446Z,15.88
2023-04-19T05:25:04.617Z,15.48
2023-04-19T05:27:31.217Z,10.88
2023-04-19T05:29:57.558Z,10.77
2023-04-19T05:32:24.192Z,12.35
2023-04-19T05:34:50.770Z,8.25
2023-04-19T05:37:17.407Z,10.77
2023-04-19T05:39:44.570Z,17.58
2023-04-19T05:42:11.296Z,14.43
2023-04-19T05:44:37.712Z,9.90
2023-04-19T05:47:04.166Z,10.45
2023-04-19T05:49:32.962Z,11.43
2023-04-19T05:51:59.336Z,8.52
2023-04-19T05:54:26.454Z,13.77
2023-04-19T05:56:53.171Z,9.27
2023-04-19T05:59:19.546Z,10.88
2023-04-19T06:01:46.163Z,11.25
2023-04-19T06:04:12.968Z,9.65
2023-04-19T06:06:40.376Z,12.63
2023-04-19T06:09:07.357Z,9.55
2023-04-19T06:11:42.998Z,11.45
2023-04-19T06:14:16.752Z,9.57
2023-04-19T06:16:43.374Z,10.13
2023-04-19T06:19:09.753Z,8.20
2023-04-19T06:21:36.114Z,14.90
2023-04-19T06:24:02.635Z,10.32
2023-04-19T06:26:29.103Z,8.35
2023-04-19T06:28:55.754Z,9.98
2023-04-19T06:31:22.192Z,8.20
2023-04-19T06:33:48.553Z,8.30
2023-04-19T06:36:14.994Z,9.35
2023-04-19T06:38:46.991Z,6.55
2023-04-19T06:41:13.386Z,9.38
2023-04-19T06:43:40.856Z,10.10
2023-04-19T06:46:08.402Z,14.88
2023-04-19T06:48:36.171Z,10.50
2023-04-19T06:51:02.822Z,6.38
2023-04-19T06:53:29.465Z,14.13
2023-04-19T06:56:03.587Z,8.27
2023-04-19T06:58:33.277Z,9.48
2023-04-19T07:01:02.004Z,8.02
2023-04-19T07:03:28.556Z,5.82
2023-04-19T07:05:57.252Z,8.65
2023-04-19T07:11:02.048Z,5.30
2023-04-19T07:13:28.480Z,6.93
2023-04-19T07:15:55.007Z,10.20
2023-04-19T07:18:21.864Z,7.20
2023-04-19T07:20:49.385Z,11.35
2023-04-19T07:23:15.981Z,8.23
2023-04-19T07:25:42.302Z,6.05
2023-04-19T07:28:08.729Z,6.65
2023-04-19T07:30:35.970Z,8.00
2023-04-19T07:33:04.528Z,6.25
2023-04-19T07:37:57.692Z,8.50
2023-04-19T07:40:24.065Z,6.03
2023-04-19T07:42:51.457Z,5.47
2023-04-19T07:45:17.854Z,12.07
2023-04-19T07:47:44.682Z,4.40
2023-04-19T07:50:12.344Z,6.97
2023-04-19T07:52:39.016Z,10.80
2023-04-19T07:55:06.121Z,5.70
2023-04-19T07:57:32.725Z,9.65
2023-04-19T07:59:59.304Z,3.97
2023-04-19T08:02:27.722Z,4.72
2023-04-19T08:07:23.131Z,3.45
2023-04-19T08:09:49.843Z,7.35
2023-04-19T08:12:30.339Z,7.53
2023-04-19T08:15:06.722Z,3.85
2023-04-19T08:17:44.147Z,7.30
2023-04-19T08:20:12.272Z,8.50
2023-04-19T08:22:39.748Z,5.55
2023-04-19T08:25:08.041Z,8.60
2023-04-19T08:27:36.604Z,4.10
2023-04-19T08:32:31.992Z,5.05
2023-04-19T08:34:58.860Z,5.65
2023-04-19T08:37:25.861Z,5.70
2023-04-19T08:39:52.581Z,5.47
2023-04-19T08:45:06.359Z,4.72
2023-04-19T08:47:52.000Z,5.25
2023-04-19T08:50:32.440Z,6.65
2023-04-19T08:53:20.309Z,7.75
2023-04-19T08:58:28.909Z,8.68
2023-04-19T09:01:00.176Z,5.18
2023-04-19T09:03:27.003Z,7.00
2023-04-19T09:05:54.533Z,9.98
2023-04-19T09:08:31.581Z,5.88
2023-04-19T09:11:01.355Z,6.07
2023-04-19T09:13:29.463Z,8.02
2023-04-19T09:16:02.150Z,6.93
2023-04-19T09:18:31.430Z,6.07
2023-04-19T09:21:00.954Z,5.95
2023-04-19T09:23:31.028Z,5.30
2023-04-19T09:26:22.245Z,8.98
2023-04-19T09:29:07.283Z,4.65
2023-04-19T09:31:50.950Z,7.32
2023-04-19T09:34:19.451Z,7.95
2023-04-19T09:36:46.915Z,5.23
2023-04-19T09:39:15.080Z,5.57
2023-04-19T09:41:54.843Z,5.28
2023-04-19T09:44:56.110Z,4.22
2023-04-19T09:47:47.073Z,6.90
2023-04-19T09:52:44.985Z,6.53
2023-04-19T09:57:56.201Z,5.90
2023-04-19T10:00:23.395Z,4.13
2023-04-19T10:02:57.701Z,7.20
2023-04-19T10:05:26.418Z,5.78
2023-04-19T10:10:40.432Z,4.22
2023-04-19T10:13:19.062Z,4.40
2023-04-19T10:15:52.498Z,7.05
2023-04-19T10:18:20.463Z,9.15
2023-04-19T10:21:01.143Z,7.45
2023-04-19T10:23:29.338Z,5.97
2023-04-19T10:26:02.373Z,8.13
2023-04-19T10:28:30.132Z,8.50
2023-04-19T10:31:02.234Z,5.60
2023-04-19T10:33:33.293Z,5.32
2023-04-19T10:36:00.710Z,7.90
2023-04-19T10:38:36.507Z,5.00
2023-04-19T10:41:04.226Z,4.78
2023-04-19T10:43:34.033Z,5.10
2023-04-19T10:46:08.662Z,6.90
2023-04-19T10:48:38.840Z,6.05
2023-04-19T10:51:07.433Z,5.68
2023-04-19T10:56:13.743Z,5.43
2023-04-19T10:59:02.673Z,10.52
2023-04-19T11:01:40.703Z,8.43
2023-04-19T11:04:08.830Z,7.03
2023-04-19T11:06:39.481Z,5.90
2023-04-19T11:09:10.339Z,11.73
2023-04-19T11:11:37.215Z,5.60
2023-04-19T11:14:04.928Z,9.75
2023-04-19T11:16:45.040Z,9.33
2023-04-19T11:19:19.992Z,7.00
2023-04-19T11:21:47.804Z,6.03
2023-04-19T11:24:18.646Z,9.63
2023-04-19T11:26:46.312Z,5.35
2023-04-19T11:29:12.763Z,6.78
2023-04-19T11:31:39.257Z,9.98
2023-04-19T11:34:06.082Z,9.93
2023-04-19T11:36:32.513Z,8.30
2023-04-19T11:38:59.118Z,10.32
2023-04-19T11:41:25.467Z,10.95
2023-04-19T11:43:52.165Z,6.53
2023-04-19T11:46:18.843Z,8.60
2023-04-19T11:48:53.482Z,7.50
2023-04-19T11:51:20.543Z,8.05
2023-04-19T11:53:47.262Z,8.45
2023-04-19T11:56:15.585Z,8.18
2023-04-19T11:58:48.559Z,7.13
2023-04-19T12:01:19.725Z,10.40
2023-04-19T12:03:49.444Z,9.52
2023-04-19T12:06:24.399Z,6.70
2023-04-19T12:08:52.405Z,7.78
2023-04-19T12:11:21.660Z,5.47
2023-04-19T12:13:48.880Z,7.65
2023-04-19T12:16:15.362Z,13.65
2023-04-19T12:18:53.373Z,7.15
2023-04-19T12:21:27.577Z,9.02
2023-04-19T12:23:56.272Z,7.70
2023-04-19T12:26:23.210Z,9.13
2023-04-19T12:28:49.610Z,15.00
2023-04-19T12:31:16.484Z,6.18
2023-04-19T12:33:43.044Z,7.85
2023-04-19T12:36:09.591Z,5.90
2023-04-19T12:38:37.680Z,8.20
2023-04-19T12:41:04.269Z,7.25
2023-04-19T12:43:31.912Z,8.57
2023-04-19T12:45:58.995Z,5.60
2023-04-19T12:48:26.046Z,8.25
2023-04-19T12:50:53.290Z,6.50
2023-04-19T12:53:20.453Z,7.45
2023-04-19T12:55:47.609Z,4.07
2023-04-19T12:58:14.917Z,6.68
2023-04-19T13:00:41.535Z,5.88
2023-04-19T13:03:08.055Z,5.97
2023-04-19T13:05:34.486Z,6.57
2023-04-19T13:08:01.201Z,7.60
2023-04-19T13:10:28.043Z,7.68
2023-04-19T13:12:54.533Z,7.43
2023-04-19T13:15:20.908Z,6.35
2023-04-19T13:17:47.555Z,13.98
2023-04-19T13:20:14.159Z,6.38
2023-04-19T13:22:40.586Z,5.53
2023-04-19T13:25:07.290Z,6.70
2023-04-19T13:27:33.668Z,10.02
2023-04-19T13:30:01.079Z,4.43
2023-04-19T13:32:27.986Z,4.07
2023-04-19T13:34:54.385Z,4.68
2023-04-19T13:37:22.344Z,6.32
2023-04-19T13:39:48.736Z,4.97
2023-04-19T13:42:15.766Z,4.88
2023-04-19T13:44:42.208Z,6.82
2023-04-19T13:47:09.750Z,5.00
2023-04-19T13:49:36.133Z,4.90
2023-04-19T13:52:02.520Z,7.13
2023-04-19T13:54:29.135Z,6.40
2023-04-19T13:56:57.796Z,8.48
2023-04-19T13:59:26.501Z,5.88
2023-04-19T14:01:55.792Z,8.20
2023-04-19T14:04:22.670Z,5.90
2023-04-19T14:06:49.593Z,5.40
2023-04-19T14:09:16.579Z,6.68
2023-04-19T14:11:43.657Z,7.82
2023-04-19T14:14:12.306Z,6.18
2023-04-19T14:19:05.195Z,6.07
2023-04-19T14:21:32.166Z,5.10
2023-04-19T14:23:59.381Z,5.78
2023-04-19T14:26:27.521Z,4.70
2023-04-19T14:28:54.369Z,5.05
2023-04-19T14:31:22.652Z,11.95
2023-04-19T14:33:49.027Z,8.07
2023-04-19T14:36:15.890Z,6.93
2023-04-19T14:38:42.309Z,7.05
2023-04-19T14:41:08.640Z,4.95
2023-04-19T14:43:35.030Z,8.95
2023-04-19T14:46:01.563Z,5.50
2023-04-19T14:48:28.027Z,6.15
2023-04-19T14:50:54.634Z,10.68
2023-04-19T14:53:21.026Z,4.32
2023-04-19T14:55:47.687Z,8.05
2023-04-19T14:58:14.370Z,6.20
2023-04-19T15:00:40.956Z,3.00
2023-04-19T15:03:08.815Z,6.60
2023-04-19T15:05:36.616Z,4.80
2023-04-19T15:08:03.367Z,3.53
2023-04-19T15:10:29.846Z,6.22
2023-04-19T15:12:56.778Z,2.95
2023-04-19T15:15:23.255Z,8.57
2023-04-19T15:17:49.637Z,4.60
2023-04-19T15:20:16.135Z,3.95
2023-04-19T15:22:42.512Z,3.90
2023-04-19T15:25:09.514Z,8.82
2023-04-19T15:27:35.905Z,2.78
2023-04-19T15:30:02.493Z,12.98
2023-04-19T15:32:30.924Z,4.72
2023-04-19T15:34:57.524Z,10.32
2023-04-19T15:37:23.943Z,2.70
2023-04-19T15:39:50.343Z,5.00
2023-04-19T15:42:16.885Z,8.23
2023-04-19T15:44:44.286Z,6.65
2023-04-19T15:47:10.809Z,3.65
2023-04-19T15:49:39.873Z,6.25
2023-04-19T15:52:06.999Z,3.58
2023-04-19T15:54:33.368Z,3.00
2023-04-19T15:57:01.917Z,4.55
2023-04-19T16:01:55.001Z,3.40
2023-04-19T16:04:21.942Z,3.67
2023-04-19T16:06:48.635Z,4.30
2023-04-19T16:09:15.598Z,7.82
2023-04-19T16:11:42.398Z,4.50
2023-04-19T16:14:08.755Z,8.20
2023-04-19T16:16:35.400Z,6.88
2023-04-19T16:19:01.857Z,4.30
2023-04-19T16:21:28.839Z,4.63
2023-04-19T16:23:56.298Z,3.90
2023-04-19T16:26:25.334Z,7.90
2023-04-19T16:28:51.903Z,9.88
2023-04-19T16:31:20.557Z,9.85
2023-04-19T16:33:47.013Z,4.43
2023-04-19T16:36:13.455Z,5.10
2023-04-19T16:38:40.068Z,4.95
2023-04-19T16:41:08.001Z,7.82
2023-04-19T16:43:35.016Z,7.63
2023-04-19T16:46:01.665Z,4.85
2023-04-19T16:48:28.326Z,4.00
2023-04-19T16:50:54.782Z,4.65
2023-04-19T16:53:21.434Z,4.03
2023-04-19T16:55:47.913Z,6.65
2023-04-19T16:58:14.605Z,4.60
2023-04-19T17:00:41.067Z,11.27
2023-04-19T17:03:09.359Z,5.20
2023-04-19T17:05:36.108Z,8.57
2023-04-19T17:08:02.650Z,6.30
2023-04-19T17:10:29.072Z,5.32
2023-04-19T17:12:58.185Z,6.40
2023-04-19T17:15:24.551Z,8.70
2023-04-19T17:17:51.040Z,11.43
2023-04-19T17:20:17.511Z,7.38
2023-04-19T17:22:43.888Z,7.25
2023-04-19T17:25:10.321Z,6.43
2023-04-19T17:27:36.905Z,7.63
2023-04-19T17:30:03.875Z,9.15
2023-04-19T17:32:30.300Z,5.35
2023-04-19T17:34:56.756Z,5.88
2023-04-19T17:37:23.340Z,9.68
2023-04-19T17:39:49.837Z,5.85
2023-04-19T17:42:16.644Z,6.18
2023-04-19T17:44:43.031Z,13.55
2023-04-19T17:47:09.427Z,8.88
2023-04-19T17:49:36.507Z,6.43
2023-04-19T17:52:03.229Z,9.25
2023-04-19T17:54:32.195Z,7.63
2023-04-19T17:56:59.976Z,15.88
2023-04-19T17:59:26.641Z,6.43
2023-04-19T18:01:58.165Z,6.65
2023-04-19T18:04:25.038Z,9.02
2023-04-19T18:06:53.038Z,7.03
2023-04-19T18:09:20.315Z,8.95
2023-04-19T18:11:47.847Z,5.63
2023-04-19T18:14:15.539Z,6.18
2023-04-19T18:16:42.295Z,14.43
2023-04-19T18:21:52.104Z,10.20
2023-04-19T18:24:25.707Z,11.82
2023-04-19T18:26:53.970Z,10.98
2023-04-19T18:29:22.948Z,4.50
2023-04-19T18:31:52.424Z,6.80
2023-04-19T18:34:19.781Z,9.40
2023-04-19T18:36:46.295Z,6.10
2023-04-19T18:39:14.657Z,7.53
2023-04-19T18:41:45.385Z,6.53
2023-04-19T18:46:41.063Z,8.63
2023-04-19T18:49:08.398Z,9.52
2023-04-19T18:51:35.242Z,8.88
2023-04-19T18:54:04.999Z,8.23
2023-04-19T18:57:10.957Z,8.80
2023-04-19T18:59:19.886Z,7.43
2023-04-19T19:01:46.827Z,8.95
2023-04-19T19:07:14.370Z,13.05
2023-04-19T19:09:55.641Z,8.88
2023-04-19T19:12:22.860Z,5.40
2023-04-19T19:14:53.003Z,7.82
2023-04-19T19:17:19.689Z,8.27
2023-04-19T19:19:46.164Z,8.05
2023-04-19T19:22:27.908Z,9.07
2023-04-19T19:25:02.275Z,10.27
2023-04-19T19:27:30.847Z,10.50
2023-04-19T19:32:25.329Z,7.30
2023-04-19T19:34:56.404Z,12.25
2023-04-19T19:37:27.828Z,8.82
2023-04-19T19:39:56.468Z,9.73
2023-04-19T19:42:24.119Z,8.32
2023-04-19T19:44:55.233Z,10.15
2023-04-19T19:47:25.043Z,6.32
2023-04-19T19:52:21.874Z,8.68
2023-04-19T19:54:48.488Z,6.95
2023-04-19T19:59:51.587Z,12.75
2023-04-19T20:02:25.194Z,6.72
2023-04-19T20:04:51.996Z,12.65
2023-04-19T20:07:37.274Z,9.38
2023-04-19T20:10:12.934Z,7.97
2023-04-19T20:12:43.913Z,13.77
2023-04-19T20:15:11.882Z,11.23
2023-04-19T20:17:44.896Z,7.78
2023-04-19T20:20:11.971Z,8.30
2023-04-19T20:22:39.615Z,10.15
2023-04-19T20:25:06.760Z,7.27
2023-04-19T20:27:34.899Z,9.02
2023-04-19T20:30:08.116Z,6.95
2023-04-19T20:32:40.418Z,7.38
2023-04-19T20:35:11.732Z,11.65
2023-04-19T20:37:42.774Z,9.00
2023-04-19T20:40:18.032Z,7.00
2023-04-19T20:42:44.938Z,4.97
2023-04-19T20:45:12.128Z,7.80
2023-04-19T20:47:43.008Z,8.30
2023-04-19T20:50:10.090Z,9.10
2023-04-19T20:52:36.565Z,8.88
2023-04-19T20:55:03.221Z,6.32
2023-04-19T20:57:36.405Z,6.63
2023-04-19T21:00:04.309Z,7.18
2023-04-19T21:02:31.237Z,10.57
2023-04-19T21:04:58.235Z,9.40
2023-04-19T21:07:24.923Z,5.80
2023-04-19T21:09:53.131Z,8.68
2023-04-19T21:12:21.879Z,6.45
2023-04-19T21:14:49.984Z,12.27
2023-04-19T21:17:16.410Z,7.35
2023-04-19T21:19:42.794Z,8.02
2023-04-19T21:22:09.496Z,5.97
2023-04-19T21:24:36.673Z,9.50
2023-04-19T21:27:07.640Z,10.85
2023-04-19T21:29:34.073Z,14.13
2023-04-19T21:32:00.776Z,7.38
2023-04-19T21:34:27.646Z,11.95
2023-04-19T21:36:54.435Z,9.23
2023-04-19T21:39:21.949Z,11.23
2023-04-19T21:41:48.662Z,17.27
2023-04-19T21:44:17.443Z,10.75
2023-04-19T21:46:44.235Z,8.55
2023-04-19T21:49:10.617Z,9.25
2023-04-19T21:51:37.257Z,9.32
2023-04-19T21:54:04.299Z,12.35
2023-04-19T21:56:33.582Z,10.32
2023-04-19T21:59:09.593Z,8.63
2023-04-19T22:01:36.070Z,7.95
2023-04-19T22:04:07.073Z,7.78
2023-04-19T22:06:40.926Z,7.32
2023-04-19T22:09:07.664Z,7.78
2023-04-19T22:11:37.180Z,9.65
2023-04-19T22:14:04.097Z,8.32
2023-04-19T22:16:32.496Z,6.78
2023-04-19T22:19:00.356Z,6.97
2023-04-19T22:21:29.847Z,7.18
2023-04-19T22:23:57.918Z,10.02
2023-04-19T22:26:26.031Z,8.07
2023-04-19T22:28:53.709Z,11.68
2023-04-19T22:31:20.077Z,10.80
2023-04-19T22:33:48.072Z,9.45
2023-04-19T22:36:14.530Z,12.13
2023-04-19T22:38:41.089Z,6.57
2023-04-19T22:41:08.270Z,12.05
2023-04-19T22:43:34.692Z,10.98
2023-04-19T22:46:01.505Z,10.63
2023-04-19T22:48:30.082Z,10.13
2023-04-19T22:53:24.259Z,14.10
2023-04-19T22:55:51.735Z,6.38
2023-04-19T22:58:19.683Z,6.97
2023-04-19T23:00:51.184Z,6.15
2023-04-19T23:03:17.572Z,15.40
2023-04-19T23:05:44.957Z,8.35
2023-04-19T23:08:13.035Z,11.40
2023-04-19T23:10:42.296Z,7.53
2023-04-19T23:13:10.857Z,8.40
2023-04-19T23:18:05.732Z,7.50
2023-04-19T23:20:32.198Z,7.05
2023-04-19T23:23:00.514Z,8.90
2023-04-19T23:25:27.237Z,6.95
2023-04-19T23:30:39.482Z,10.77
2023-04-19T23:33:09.056Z,6.90
2023-04-19T23:35:35.427Z,8.00
2023-04-19T23:38:02.210Z,11.75
2023-04-19T23:40:28.565Z,10.30
2023-04-19T23:42:55.183Z,6.57
2023-04-19T23:45:21.755Z,7.65
2023-04-19T23:47:59.309Z,13.88
2023-04-19T23:50:28.196Z,9.93
2023-04-19T23:52:58.216Z,12.07
2023-04-19T23:55:24.944Z,10.48
2023-04-19T23:57:51.434Z,8.05
